sensor_id;sensor_type;location;lat;lon;timestamp;temperature;humidity
34815;DHT22;21030;53.912;15.214;2022-09-09T00:01:58;32.40;34.90
34815;DHT22;21030;53.912;15.214;2022-09-09T00:04:30;33.20;34.70
34815;DHT22;21030;53.912;15.214;2022-09-09T00:10:22;32.90;35.00
34815;DHT22;21030;53.912;15.214;2022-09-09T00:16:04;32.20;35.40
34815;DHT22;21030;53.912;15.214;2022-09-09T00:21:43;32.70;35.00
34815;DHT22;21030;53.912;15.214;2022-09-09T00:26:52;33.50;34.50
34815;DHT22;21030;53.912;15.214;2022-09-09T00:32:16;34.10;33.10
34815;DHT22;21030;53.912;15.214;2022-09-09T00:34:58;34.20;32.90
34815;DHT22;21030;53.912;15.214;2022-09-09T00:37:26;34.40;32.80
34815;DHT22;21030;53.912;15.214;2022-09-09T00:39:58;34.90;32.90
34815;DHT22;21030;53.912;15.214;2022-09-09T00:42:51;35.10;32.60
34815;DHT22;21030;53.912;15.214;2022-09-09T00:51:51;35.20;32.60
34815;DHT22;21030;53.912;15.214;2022-09-09T00:54:46;35.00;32.60
34815;DHT22;21030;53.912;15.214;2022-09-09T00:57:34;35.20;32.40
34815;DHT22;21030;53.912;15.214;2022-09-09T01:08:01;35.90;32.10
34815;DHT22;21030;53.912;15.214;2022-09-09T01:13:04;35.80;32.30
34815;DHT22;21030;53.912;15.214;2022-09-09T01:15:32;36.00;31.90
34815;DHT22;21030;53.912;15.214;2022-09-09T01:18:13;36.10;31.80
34815;DHT22;21030;53.912;15.214;2022-09-09T01:28:52;36.80;31.10
34815;DHT22;21030;53.912;15.214;2022-09-09T01:31:27;37.20;31.10
34815;DHT22;21030;53.912;15.214;2022-09-09T01:33:55;36.90;31.00
34815;DHT22;21030;53.912;15.214;2022-09-09T01:36:42;37.10;31.30
34815;DHT22;21030;53.912;15.214;2022-09-09T01:39:10;37.20;30.90
34815;DHT22;21030;53.912;15.214;2022-09-09T01:41:38;37.10;31.30
34815;DHT22;21030;53.912;15.214;2022-09-09T01:44:07;37.00;31.20
34815;DHT22;21030;53.912;15.214;2022-09-09T01:46:35;36.90;31.50
34815;DHT22;21030;53.912;15.214;2022-09-09T01:49:03;36.50;31.80
34815;DHT22;21030;53.912;15.214;2022-09-09T01:51:32;36.10;32.50
34815;DHT22;21030;53.912;15.214;2022-09-09T01:53:59;36.40;32.40
34815;DHT22;21030;53.912;15.214;2022-09-09T01:59:53;35.00;33.90
34815;DHT22;21030;53.912;15.214;2022-09-09T02:07:41;33.90;36.00
34815;DHT22;21030;53.912;15.214;2022-09-09T02:10:20;33.90;36.40
34815;DHT22;21030;53.912;15.214;2022-09-09T02:13:10;34.30;36.00
34815;DHT22;21030;53.912;15.214;2022-09-09T02:15:57;34.50;35.50
34815;DHT22;21030;53.912;15.214;2022-09-09T02:18:32;34.50;35.10
34815;DHT22;21030;53.912;15.214;2022-09-09T02:21:02;34.00;35.50
34815;DHT22;21030;53.912;15.214;2022-09-09T02:23:32;33.70;36.20
34815;DHT22;21030;53.912;15.214;2022-09-09T02:26:02;34.10;36.30
34815;DHT22;21030;53.912;15.214;2022-09-09T02:28:32;34.30;35.70
34815;DHT22;21030;53.912;15.214;2022-09-09T02:31:00;34.30;35.40
34815;DHT22;21030;53.912;15.214;2022-09-09T02:33:32;34.70;35.50
34815;DHT22;21030;53.912;15.214;2022-09-09T02:36:02;34.10;35.30
34815;DHT22;21030;53.912;15.214;2022-09-09T02:38:34;34.20;35.60
34815;DHT22;21030;53.912;15.214;2022-09-09T02:41:03;34.20;35.40
34815;DHT22;21030;53.912;15.214;2022-09-09T02:43:32;34.30;35.60
34815;DHT22;21030;53.912;15.214;2022-09-09T02:46:24;35.00;34.80
34815;DHT22;21030;53.912;15.214;2022-09-09T02:49:02;35.00;34.30
34815;DHT22;21030;53.912;15.214;2022-09-09T02:54:20;35.60;34.10
34815;DHT22;21030;53.912;15.214;2022-09-09T02:56:52;35.30;34.70
34815;DHT22;21030;53.912;15.214;2022-09-09T02:59:25;35.80;33.70
34815;DHT22;21030;53.912;15.214;2022-09-09T03:01:53;35.80;33.10
34815;DHT22;21030;53.912;15.214;2022-09-09T03:04:20;35.90;33.10
34815;DHT22;21030;53.912;15.214;2022-09-09T03:06:47;35.60;33.70
34815;DHT22;21030;53.912;15.214;2022-09-09T03:09:14;35.70;33.50
34815;DHT22;21030;53.912;15.214;2022-09-09T03:11:42;36.20;33.50
34815;DHT22;21030;53.912;15.214;2022-09-09T03:14:09;36.40;32.70
34815;DHT22;21030;53.912;15.214;2022-09-09T03:16:39;36.50;32.70
34815;DHT22;21030;53.912;15.214;2022-09-09T03:19:06;37.00;32.30
34815;DHT22;21030;53.912;15.214;2022-09-09T03:21:33;37.10;31.80
34815;DHT22;21030;53.912;15.214;2022-09-09T03:24:00;36.90;31.90
34815;DHT22;21030;53.912;15.214;2022-09-09T03:26:30;37.00;32.10
34815;DHT22;21030;53.912;15.214;2022-09-09T03:28:57;37.30;31.60
34815;DHT22;21030;53.912;15.214;2022-09-09T03:31:24;37.40;31.00
34815;DHT22;21030;53.912;15.214;2022-09-09T03:33:52;37.20;31.10
34815;DHT22;21030;53.912;15.214;2022-09-09T03:36:19;36.90;31.40
34815;DHT22;21030;53.912;15.214;2022-09-09T03:38:46;37.00;31.60
34815;DHT22;21030;53.912;15.214;2022-09-09T03:41:13;37.30;31.50
34815;DHT22;21030;53.912;15.214;2022-09-09T03:43:40;37.50;31.10
34815;DHT22;21030;53.912;15.214;2022-09-09T03:46:08;37.70;30.90
34815;DHT22;21030;53.912;15.214;2022-09-09T03:48:35;37.60;30.90
34815;DHT22;21030;53.912;15.214;2022-09-09T03:51:02;37.70;30.70
34815;DHT22;21030;53.912;15.214;2022-09-09T03:53:29;37.60;30.80
34815;DHT22;21030;53.912;15.214;2022-09-09T03:55:57;37.60;30.80
34815;DHT22;21030;53.912;15.214;2022-09-09T03:58:27;37.80;30.60
34815;DHT22;21030;53.912;15.214;2022-09-09T04:00:59;38.10;30.30
34815;DHT22;21030;53.912;15.214;2022-09-09T04:03:27;37.90;30.10
34815;DHT22;21030;53.912;15.214;2022-09-09T04:05:55;37.60;30.50
34815;DHT22;21030;53.912;15.214;2022-09-09T04:08:22;37.10;30.90
34815;DHT22;21030;53.912;15.214;2022-09-09T04:10:53;37.20;31.10
34815;DHT22;21030;53.912;15.214;2022-09-09T04:13:20;37.10;31.30
34815;DHT22;21030;53.912;15.214;2022-09-09T04:15:52;37.30;31.10
34815;DHT22;21030;53.912;15.214;2022-09-09T04:18:22;37.60;30.80
34815;DHT22;21030;53.912;15.214;2022-09-09T04:20:51;37.60;30.60
34815;DHT22;21030;53.912;15.214;2022-09-09T04:23:20;37.60;30.30
34815;DHT22;21030;53.912;15.214;2022-09-09T04:25:49;37.50;30.50
34815;DHT22;21030;53.912;15.214;2022-09-09T04:28:17;37.00;30.70
34815;DHT22;21030;53.912;15.214;2022-09-09T04:30:46;36.70;31.40
34815;DHT22;21030;53.912;15.214;2022-09-09T04:33:14;37.00;31.40
34815;DHT22;21030;53.912;15.214;2022-09-09T04:35:49;37.20;31.10
34815;DHT22;21030;53.912;15.214;2022-09-09T04:38:17;36.40;31.10
34815;DHT22;21030;53.912;15.214;2022-09-09T04:40:48;36.40;31.80
34815;DHT22;21030;53.912;15.214;2022-09-09T04:43:15;36.50;31.80
34815;DHT22;21030;53.912;15.214;2022-09-09T04:45:46;36.80;31.70
34815;DHT22;21030;53.912;15.214;2022-09-09T04:48:14;37.20;31.30
34815;DHT22;21030;53.912;15.214;2022-09-09T04:50:42;37.70;30.70
34815;DHT22;21030;53.912;15.214;2022-09-09T04:53:09;37.60;30.60
34815;DHT22;21030;53.912;15.214;2022-09-09T04:55:36;37.80;30.40
34815;DHT22;21030;53.912;15.214;2022-09-09T04:58:06;37.50;30.40
34815;DHT22;21030;53.912;15.214;2022-09-09T05:00:34;37.20;30.90
34815;DHT22;21030;53.912;15.214;2022-09-09T05:03:06;37.40;30.60
34815;DHT22;21030;53.912;15.214;2022-09-09T05:05:35;37.50;30.40
34815;DHT22;21030;53.912;15.214;2022-09-09T05:08:07;37.20;30.90
34815;DHT22;21030;53.912;15.214;2022-09-09T05:10:37;37.10;30.70
34815;DHT22;21030;53.912;15.214;2022-09-09T05:13:05;36.80;31.00
34815;DHT22;21030;53.912;15.214;2022-09-09T05:15:33;37.10;31.10
34815;DHT22;21030;53.912;15.214;2022-09-09T05:18:01;36.90;31.10
34815;DHT22;21030;53.912;15.214;2022-09-09T05:20:28;36.90;30.90
34815;DHT22;21030;53.912;15.214;2022-09-09T05:22:56;36.70;31.30
34815;DHT22;21030;53.912;15.214;2022-09-09T05:25:23;36.60;31.40
34815;DHT22;21030;53.912;15.214;2022-09-09T05:27:53;36.90;31.70
34815;DHT22;21030;53.912;15.214;2022-09-09T05:30:21;37.30;31.20
34815;DHT22;21030;53.912;15.214;2022-09-09T05:32:49;37.80;30.50
34815;DHT22;21030;53.912;15.214;2022-09-09T05:35:16;37.70;30.40
34815;DHT22;21030;53.912;15.214;2022-09-09T05:37:45;37.70;30.50
34815;DHT22;21030;53.912;15.214;2022-09-09T05:40:12;38.00;30.20
34815;DHT22;21030;53.912;15.214;2022-09-09T05:42:41;38.00;30.00
34815;DHT22;21030;53.912;15.214;2022-09-09T05:45:09;38.20;29.90
34815;DHT22;21030;53.912;15.214;2022-09-09T05:47:36;38.60;29.80
34815;DHT22;21030;53.912;15.214;2022-09-09T05:50:04;38.40;30.00
34815;DHT22;21030;53.912;15.214;2022-09-09T05:52:31;38.30;29.80
34815;DHT22;21030;53.912;15.214;2022-09-09T05:54:59;38.30;29.60
34815;DHT22;21030;53.912;15.214;2022-09-09T05:57:26;38.30;29.80
34815;DHT22;21030;53.912;15.214;2022-09-09T05:59:53;38.30;29.90
34815;DHT22;21030;53.912;15.214;2022-09-09T06:02:20;38.30;29.60
34815;DHT22;21030;53.912;15.214;2022-09-09T06:04:47;38.30;29.70
34815;DHT22;21030;53.912;15.214;2022-09-09T06:07:14;37.90;29.80
34815;DHT22;21030;53.912;15.214;2022-09-09T06:09:41;38.20;30.00
34815;DHT22;21030;53.912;15.214;2022-09-09T06:12:08;38.60;29.60
34815;DHT22;21030;53.912;15.214;2022-09-09T06:14:35;38.70;29.60
34815;DHT22;21030;53.912;15.214;2022-09-09T06:17:03;38.50;29.50
34815;DHT22;21030;53.912;15.214;2022-09-09T06:19:30;38.40;29.60
34815;DHT22;21030;53.912;15.214;2022-09-09T06:21:57;38.40;29.60
34815;DHT22;21030;53.912;15.214;2022-09-09T06:24:25;38.30;29.50
34815;DHT22;21030;53.912;15.214;2022-09-09T06:26:54;37.90;29.80
34815;DHT22;21030;53.912;15.214;2022-09-09T06:29:21;38.30;30.00
34815;DHT22;21030;53.912;15.214;2022-09-09T06:31:48;38.10;29.60
34815;DHT22;21030;53.912;15.214;2022-09-09T06:34:15;38.30;29.50
34815;DHT22;21030;53.912;15.214;2022-09-09T06:36:42;38.60;29.70
34815;DHT22;21030;53.912;15.214;2022-09-09T06:39:09;38.70;29.30
34815;DHT22;21030;53.912;15.214;2022-09-09T06:41:41;38.80;29.10
34815;DHT22;21030;53.912;15.214;2022-09-09T06:44:09;38.70;29.10
34815;DHT22;21030;53.912;15.214;2022-09-09T06:46:38;38.30;29.40
34815;DHT22;21030;53.912;15.214;2022-09-09T06:49:07;37.50;29.90
34815;DHT22;21030;53.912;15.214;2022-09-09T06:51:37;37.60;30.50
34815;DHT22;21030;53.912;15.214;2022-09-09T06:54:10;37.80;30.30
34815;DHT22;21030;53.912;15.214;2022-09-09T06:56:40;37.90;29.80
34815;DHT22;21030;53.912;15.214;2022-09-09T06:59:09;37.80;29.90
34815;DHT22;21030;53.912;15.214;2022-09-09T07:01:38;38.00;30.00
34815;DHT22;21030;53.912;15.214;2022-09-09T07:04:07;37.50;30.00
34815;DHT22;21030;53.912;15.214;2022-09-09T07:06:42;37.40;30.30
34815;DHT22;21030;53.912;15.214;2022-09-09T07:09:13;37.40;30.10
34815;DHT22;21030;53.912;15.214;2022-09-09T07:11:42;37.80;29.80
34815;DHT22;21030;53.912;15.214;2022-09-09T07:14:11;37.40;30.00
34815;DHT22;21030;53.912;15.214;2022-09-09T07:16:41;37.50;29.90
34815;DHT22;21030;53.912;15.214;2022-09-09T07:19:08;37.60;30.10
34815;DHT22;21030;53.912;15.214;2022-09-09T07:21:35;37.00;30.30
34815;DHT22;21030;53.912;15.214;2022-09-09T07:24:03;37.00;30.60
34815;DHT22;21030;53.912;15.214;2022-09-09T07:26:34;37.70;30.20
34815;DHT22;21030;53.912;15.214;2022-09-09T07:29:01;38.20;29.70
34815;DHT22;21030;53.912;15.214;2022-09-09T07:31:33;38.50;29.30
34815;DHT22;21030;53.912;15.214;2022-09-09T07:34:02;38.90;29.10
34815;DHT22;21030;53.912;15.214;2022-09-09T07:36:32;39.30;28.90
34815;DHT22;21030;53.912;15.214;2022-09-09T07:39:05;39.40;28.60
34815;DHT22;21030;53.912;15.214;2022-09-09T07:41:55;38.90;28.90
34815;DHT22;21030;53.912;15.214;2022-09-09T07:44:23;38.60;29.10
34815;DHT22;21030;53.912;15.214;2022-09-09T07:46:54;38.30;29.30
34815;DHT22;21030;53.912;15.214;2022-09-09T07:49:21;38.40;29.50
34815;DHT22;21030;53.912;15.214;2022-09-09T07:51:56;38.70;29.40
34815;DHT22;21030;53.912;15.214;2022-09-09T07:54:23;38.90;28.90
34815;DHT22;21030;53.912;15.214;2022-09-09T07:56:51;39.10;28.90
34815;DHT22;21030;53.912;15.214;2022-09-09T07:59:18;39.20;28.90
34815;DHT22;21030;53.912;15.214;2022-09-09T08:01:48;38.90;28.80
34815;DHT22;21030;53.912;15.214;2022-09-09T08:04:18;39.00;29.50
34815;DHT22;21030;53.912;15.214;2022-09-09T08:06:57;39.30;29.20
34815;DHT22;21030;53.912;15.214;2022-09-09T08:09:26;39.40;28.60
34815;DHT22;21030;53.912;15.214;2022-09-09T08:11:57;39.80;28.70
34815;DHT22;21030;53.912;15.214;2022-09-09T08:14:25;40.00;28.40
34815;DHT22;21030;53.912;15.214;2022-09-09T08:16:52;39.90;28.40
34815;DHT22;21030;53.912;15.214;2022-09-09T08:19:22;39.80;28.50
34815;DHT22;21030;53.912;15.214;2022-09-09T08:21:50;40.20;28.30
34815;DHT22;21030;53.912;15.214;2022-09-09T08:24:17;40.50;28.20
34815;DHT22;21030;53.912;15.214;2022-09-09T08:26:47;40.50;28.20
34815;DHT22;21030;53.912;15.214;2022-09-09T08:29:18;40.60;28.10
34815;DHT22;21030;53.912;15.214;2022-09-09T08:31:56;40.50;28.20
34815;DHT22;21030;53.912;15.214;2022-09-09T08:34:24;40.70;27.90
34815;DHT22;21030;53.912;15.214;2022-09-09T08:36:54;40.20;28.10
34815;DHT22;21030;53.912;15.214;2022-09-09T08:39:22;40.00;28.80
34815;DHT22;21030;53.912;15.214;2022-09-09T08:53:01;40.10;28.30
34815;DHT22;21030;53.912;15.214;2022-09-09T09:11:23;40.90;27.50
34815;DHT22;21030;53.912;15.214;2022-09-09T09:14:21;41.60;27.70
34815;DHT22;21030;53.912;15.214;2022-09-09T09:16:57;41.40;27.10
34815;DHT22;21030;53.912;15.214;2022-09-09T09:19:27;41.20;27.40
34815;DHT22;21030;53.912;15.214;2022-09-09T09:22:20;42.00;28.20
34815;DHT22;21030;53.912;15.214;2022-09-09T09:24:55;41.60;26.50
34815;DHT22;21030;53.912;15.214;2022-09-09T09:27:34;41.70;26.60
34815;DHT22;21030;53.912;15.214;2022-09-09T09:30:19;41.10;26.50
34815;DHT22;21030;53.912;15.214;2022-09-09T09:33:45;40.40;26.80
34815;DHT22;21030;53.912;15.214;2022-09-09T09:35:51;40.80;27.10
34815;DHT22;21030;53.912;15.214;2022-09-09T09:38:20;41.20;26.90
34815;DHT22;21030;53.912;15.214;2022-09-09T09:41:09;40.70;26.60
34815;DHT22;21030;53.912;15.214;2022-09-09T09:43:40;40.70;26.90
34815;DHT22;21030;53.912;15.214;2022-09-09T09:46:20;40.10;27.10
34815;DHT22;21030;53.912;15.214;2022-09-09T09:49:04;40.20;27.50
34815;DHT22;21030;53.912;15.214;2022-09-09T09:51:33;40.80;27.30
34815;DHT22;21030;53.912;15.214;2022-09-09T09:56:40;40.20;27.70
34815;DHT22;21030;53.912;15.214;2022-09-09T10:02:19;40.90;27.10
34815;DHT22;21030;53.912;15.214;2022-09-09T10:04:47;39.60;27.30
34815;DHT22;21030;53.912;15.214;2022-09-09T10:07:19;39.70;27.90
34815;DHT22;21030;53.912;15.214;2022-09-09T10:09:55;40.10;27.30
34815;DHT22;21030;53.912;15.214;2022-09-09T10:15:30;40.40;27.20
34815;DHT22;21030;53.912;15.214;2022-09-09T10:26:45;40.70;27.20
34815;DHT22;21030;53.912;15.214;2022-09-09T10:32:48;41.20;27.10
34815;DHT22;21030;53.912;15.214;2022-09-09T10:43:52;41.40;26.60
34815;DHT22;21030;53.912;15.214;2022-09-09T10:54:13;43.70;24.90
34815;DHT22;21030;53.912;15.214;2022-09-09T10:56:53;44.30;24.40
34815;DHT22;21030;53.912;15.214;2022-09-09T10:59:33;44.60;23.90
34815;DHT22;21030;53.912;15.214;2022-09-09T11:04:42;44.20;23.80
34815;DHT22;21030;53.912;15.214;2022-09-09T11:07:16;44.40;23.80
34815;DHT22;21030;53.912;15.214;2022-09-09T11:09:49;43.70;24.30
34815;DHT22;21030;53.912;15.214;2022-09-09T11:12:20;43.90;24.50
34815;DHT22;21030;53.912;15.214;2022-09-09T11:14:59;43.90;24.60
34815;DHT22;21030;53.912;15.214;2022-09-09T11:17:44;44.50;24.70
34815;DHT22;21030;53.912;15.214;2022-09-09T11:20:14;45.40;24.20
34815;DHT22;21030;53.912;15.214;2022-09-09T11:25:25;45.90;23.00
34815;DHT22;21030;53.912;15.214;2022-09-09T11:27:57;45.30;22.80
34815;DHT22;21030;53.912;15.214;2022-09-09T11:38:44;45.50;23.00
34815;DHT22;21030;53.912;15.214;2022-09-09T11:41:14;45.40;23.10
34815;DHT22;21030;53.912;15.214;2022-09-09T11:43:52;45.00;23.40
34815;DHT22;21030;53.912;15.214;2022-09-09T11:46:22;44.60;23.30
34815;DHT22;21030;53.912;15.214;2022-09-09T11:49:04;44.10;23.20
34815;DHT22;21030;53.912;15.214;2022-09-09T11:51:33;44.40;23.40
34815;DHT22;21030;53.912;15.214;2022-09-09T11:56:57;44.90;23.10
34815;DHT22;21030;53.912;15.214;2022-09-09T11:59:29;44.80;23.20
34815;DHT22;21030;53.912;15.214;2022-09-09T12:02:13;45.10;23.40
34815;DHT22;21030;53.912;15.214;2022-09-09T12:04:54;45.30;22.80
34815;DHT22;21030;53.912;15.214;2022-09-09T12:07:49;45.40;22.80
34815;DHT22;21030;53.912;15.214;2022-09-09T12:10:27;46.00;22.30
34815;DHT22;21030;53.912;15.214;2022-09-09T12:12:55;45.70;22.30
34815;DHT22;21030;53.912;15.214;2022-09-09T12:15:34;45.80;22.50
34815;DHT22;21030;53.912;15.214;2022-09-09T12:18:01;45.40;22.40
34815;DHT22;21030;53.912;15.214;2022-09-09T12:23:15;45.30;22.90
34815;DHT22;21030;53.912;15.214;2022-09-09T12:26:14;45.80;22.80
34815;DHT22;21030;53.912;15.214;2022-09-09T12:32:33;45.90;22.30
34815;DHT22;21030;53.912;15.214;2022-09-09T12:34:47;45.40;22.60
34815;DHT22;21030;53.912;15.214;2022-09-09T12:37:30;44.70;22.90
34815;DHT22;21030;53.912;15.214;2022-09-09T12:40:23;44.50;22.80
34815;DHT22;21030;53.912;15.214;2022-09-09T12:42:50;45.00;22.70
34815;DHT22;21030;53.912;15.214;2022-09-09T12:45:26;44.80;22.70
34815;DHT22;21030;53.912;15.214;2022-09-09T12:47:57;45.00;22.70
34815;DHT22;21030;53.912;15.214;2022-09-09T12:50:27;45.10;22.80
34815;DHT22;21030;53.912;15.214;2022-09-09T12:52:58;44.60;23.00
34815;DHT22;21030;53.912;15.214;2022-09-09T12:55:30;43.60;23.40
34815;DHT22;21030;53.912;15.214;2022-09-09T12:57:58;43.30;24.10
34815;DHT22;21030;53.912;15.214;2022-09-09T13:00:26;42.80;24.10
34815;DHT22;21030;53.912;15.214;2022-09-09T13:02:56;42.90;24.80
34815;DHT22;21030;53.912;15.214;2022-09-09T13:05:28;42.90;25.20
34815;DHT22;21030;53.912;15.214;2022-09-09T13:08:02;42.80;24.90
34815;DHT22;21030;53.912;15.214;2022-09-09T13:10:34;42.60;25.00
34815;DHT22;21030;53.912;15.214;2022-09-09T13:13:32;42.50;25.10
34815;DHT22;21030;53.912;15.214;2022-09-09T13:16:02;42.40;25.40
34815;DHT22;21030;53.912;15.214;2022-09-09T13:18:36;42.50;25.10
34815;DHT22;21030;53.912;15.214;2022-09-09T13:21:04;42.60;25.00
34815;DHT22;21030;53.912;15.214;2022-09-09T13:23:34;42.10;24.80
34815;DHT22;21030;53.912;15.214;2022-09-09T13:26:04;42.90;24.80
34815;DHT22;21030;53.912;15.214;2022-09-09T13:28:33;43.30;24.50
34815;DHT22;21030;53.912;15.214;2022-09-09T13:31:05;44.10;23.90
34815;DHT22;21030;53.912;15.214;2022-09-09T13:33:45;44.30;23.40
34815;DHT22;21030;53.912;15.214;2022-09-09T13:36:13;44.40;23.40
34815;DHT22;21030;53.912;15.214;2022-09-09T13:38:56;43.90;23.20
34815;DHT22;21030;53.912;15.214;2022-09-09T13:43:58;43.20;23.50
34815;DHT22;21030;53.912;15.214;2022-09-09T13:46:39;43.70;23.90
34815;DHT22;21030;53.912;15.214;2022-09-09T13:51:50;44.10;24.00
34815;DHT22;21030;53.912;15.214;2022-09-09T13:54:20;44.40;24.20
34815;DHT22;21030;53.912;15.214;2022-09-09T13:56:47;44.70;23.80
34815;DHT22;21030;53.912;15.214;2022-09-09T13:59:18;44.50;23.40
34815;DHT22;21030;53.912;15.214;2022-09-09T14:01:48;44.70;23.50
34815;DHT22;21030;53.912;15.214;2022-09-09T14:04:19;44.60;23.40
34815;DHT22;21030;53.912;15.214;2022-09-09T14:06:51;45.00;23.40
34815;DHT22;21030;53.912;15.214;2022-09-09T14:09:18;45.70;23.00
34815;DHT22;21030;53.912;15.214;2022-09-09T14:11:45;45.90;22.50
34815;DHT22;21030;53.912;15.214;2022-09-09T14:14:13;46.10;22.10
34815;DHT22;21030;53.912;15.214;2022-09-09T14:16:42;46.40;22.20
34815;DHT22;21030;53.912;15.214;2022-09-09T14:19:12;46.60;22.00
34815;DHT22;21030;53.912;15.214;2022-09-09T14:21:39;46.70;21.50
34815;DHT22;21030;53.912;15.214;2022-09-09T14:24:06;47.20;21.30
34815;DHT22;21030;53.912;15.214;2022-09-09T14:26:33;47.60;21.10
34815;DHT22;21030;53.912;15.214;2022-09-09T14:29:00;47.40;20.60
34815;DHT22;21030;53.912;15.214;2022-09-09T14:31:29;47.60;20.70
34815;DHT22;21030;53.912;15.214;2022-09-09T14:33:56;47.20;20.70
34815;DHT22;21030;53.912;15.214;2022-09-09T14:36:23;46.80;20.60
34815;DHT22;21030;53.912;15.214;2022-09-09T14:38:51;46.70;20.80
34815;DHT22;21030;53.912;15.214;2022-09-09T14:41:20;46.40;20.70
34815;DHT22;21030;53.912;15.214;2022-09-09T14:43:49;45.50;21.10
34815;DHT22;21030;53.912;15.214;2022-09-09T14:46:44;45.30;21.60
34815;DHT22;21030;53.912;15.214;2022-09-09T14:49:14;44.90;21.80
34815;DHT22;21030;53.912;15.214;2022-09-09T14:51:42;44.80;21.90
34815;DHT22;21030;53.912;15.214;2022-09-09T14:54:09;45.10;22.00
34815;DHT22;21030;53.912;15.214;2022-09-09T14:56:37;44.90;22.00
34815;DHT22;21030;53.912;15.214;2022-09-09T14:59:04;44.70;22.30
34815;DHT22;21030;53.912;15.214;2022-09-09T15:01:31;45.10;22.40
34815;DHT22;21030;53.912;15.214;2022-09-09T15:04:00;45.60;22.40
34815;DHT22;21030;53.912;15.214;2022-09-09T15:06:29;45.30;22.30
34815;DHT22;21030;53.912;15.214;2022-09-09T15:08:57;45.20;22.50
34815;DHT22;21030;53.912;15.214;2022-09-09T15:11:26;45.10;22.80
34815;DHT22;21030;53.912;15.214;2022-09-09T15:13:54;45.60;22.80
34815;DHT22;21030;53.912;15.214;2022-09-09T15:16:23;45.70;22.50
34815;DHT22;21030;53.912;15.214;2022-09-09T15:18:53;45.10;22.70
34815;DHT22;21030;53.912;15.214;2022-09-09T15:21:23;44.30;22.90
34815;DHT22;21030;53.912;15.214;2022-09-09T15:23:51;43.20;23.60
34815;DHT22;21030;53.912;15.214;2022-09-09T15:26:18;43.00;24.10
34815;DHT22;21030;53.912;15.214;2022-09-09T15:28:47;43.00;24.40
34815;DHT22;21030;53.912;15.214;2022-09-09T15:33:59;42.20;25.90
34815;DHT22;21030;53.912;15.214;2022-09-09T15:39:00;41.50;25.60
34815;DHT22;21030;53.912;15.214;2022-09-09T15:41:28;41.60;26.00
34815;DHT22;21030;53.912;15.214;2022-09-09T15:43:56;41.10;26.10
34815;DHT22;21030;53.912;15.214;2022-09-09T15:49:07;40.40;27.20
34815;DHT22;21030;53.912;15.214;2022-09-09T15:51:39;40.60;26.90
34815;DHT22;21030;53.912;15.214;2022-09-09T15:54:17;40.60;26.30
34815;DHT22;21030;53.912;15.214;2022-09-09T15:56:46;40.80;26.60
34815;DHT22;21030;53.912;15.214;2022-09-09T15:59:16;40.30;26.80
34815;DHT22;21030;53.912;15.214;2022-09-09T16:01:43;40.30;26.80
34815;DHT22;21030;53.912;15.214;2022-09-09T16:04:10;40.90;27.00
34815;DHT22;21030;53.912;15.214;2022-09-09T16:06:38;41.30;26.60
34815;DHT22;21030;53.912;15.214;2022-09-09T16:09:06;41.20;26.80
34815;DHT22;21030;53.912;15.214;2022-09-09T16:11:36;41.30;26.60
34815;DHT22;21030;53.912;15.214;2022-09-09T16:14:07;41.20;26.20
34815;DHT22;21030;53.912;15.214;2022-09-09T16:16:35;41.20;26.40
34815;DHT22;21030;53.912;15.214;2022-09-09T16:19:06;41.10;26.40
34815;DHT22;21030;53.912;15.214;2022-09-09T16:21:36;41.30;26.50
34815;DHT22;21030;53.912;15.214;2022-09-09T16:24:05;41.70;26.50
34815;DHT22;21030;53.912;15.214;2022-09-09T16:26:35;41.80;26.30
34815;DHT22;21030;53.912;15.214;2022-09-09T16:29:03;41.80;26.00
34815;DHT22;21030;53.912;15.214;2022-09-09T16:31:31;41.50;26.20
34815;DHT22;21030;53.912;15.214;2022-09-09T16:34:01;41.70;26.20
34815;DHT22;21030;53.912;15.214;2022-09-09T16:36:32;41.80;26.30
34815;DHT22;21030;53.912;15.214;2022-09-09T16:39:05;41.40;26.10
34815;DHT22;21030;53.912;15.214;2022-09-09T16:41:33;40.80;26.50
34815;DHT22;21030;53.912;15.214;2022-09-09T16:44:03;40.80;26.80
34815;DHT22;21030;53.912;15.214;2022-09-09T16:46:34;40.50;27.20
34815;DHT22;21030;53.912;15.214;2022-09-09T16:49:03;40.20;27.50
34815;DHT22;21030;53.912;15.214;2022-09-09T16:51:37;40.60;27.60
34815;DHT22;21030;53.912;15.214;2022-09-09T16:54:06;40.70;27.40
34815;DHT22;21030;53.912;15.214;2022-09-09T16:56:36;39.90;27.50
34815;DHT22;21030;53.912;15.214;2022-09-09T16:59:07;40.00;28.00
34815;DHT22;21030;53.912;15.214;2022-09-09T17:01:38;40.00;28.10
34815;DHT22;21030;53.912;15.214;2022-09-09T17:04:10;39.80;28.20
34815;DHT22;21030;53.912;15.214;2022-09-09T17:06:37;39.90;28.20
34815;DHT22;21030;53.912;15.214;2022-09-09T17:09:10;39.70;28.10
34815;DHT22;21030;53.912;15.214;2022-09-09T17:11:38;40.00;28.20
34815;DHT22;21030;53.912;15.214;2022-09-09T17:14:10;40.10;27.90
34815;DHT22;21030;53.912;15.214;2022-09-09T17:16:37;40.10;28.00
34815;DHT22;21030;53.912;15.214;2022-09-09T17:19:06;40.10;27.90
34815;DHT22;21030;53.912;15.214;2022-09-09T17:21:35;40.10;28.10
34815;DHT22;21030;53.912;15.214;2022-09-09T17:24:20;40.00;28.00
34815;DHT22;21030;53.912;15.214;2022-09-09T17:26:48;40.00;28.00
34815;DHT22;21030;53.912;15.214;2022-09-09T17:29:15;40.20;28.10
34815;DHT22;21030;53.912;15.214;2022-09-09T17:31:43;40.50;28.10
34815;DHT22;21030;53.912;15.214;2022-09-09T17:34:10;40.80;28.00
34815;DHT22;21030;53.912;15.214;2022-09-09T17:36:38;40.90;27.70
34815;DHT22;21030;53.912;15.214;2022-09-09T17:39:06;41.00;27.50
34815;DHT22;21030;53.912;15.214;2022-09-09T17:41:36;41.10;27.50
34815;DHT22;21030;53.912;15.214;2022-09-09T17:44:05;41.20;27.40
34815;DHT22;21030;53.912;15.214;2022-09-09T17:46:39;41.10;27.40
34815;DHT22;21030;53.912;15.214;2022-09-09T17:49:12;41.10;27.40
34815;DHT22;21030;53.912;15.214;2022-09-09T17:51:40;40.90;27.40
34815;DHT22;21030;53.912;15.214;2022-09-09T17:54:11;40.90;27.50
34815;DHT22;21030;53.912;15.214;2022-09-09T17:56:40;40.80;28.10
34815;DHT22;21030;53.912;15.214;2022-09-09T17:59:10;40.70;27.50
34815;DHT22;21030;53.912;15.214;2022-09-09T18:01:41;40.70;27.50
34815;DHT22;21030;53.912;15.214;2022-09-09T18:04:12;40.80;27.60
34815;DHT22;21030;53.912;15.214;2022-09-09T18:06:45;40.90;27.60
34815;DHT22;21030;53.912;15.214;2022-09-09T18:09:15;40.80;27.50
34815;DHT22;21030;53.912;15.214;2022-09-09T18:11:47;40.80;27.60